Time;durP1;ratioP1;P1;durP2;ratioP2;P2;SDS_P1;SDS_P2;PMS_P1;PMS_P2;Temp;Humidity;BMP_temperature;BMP_pressure;BME280_temperature;BME280_humidity;BME280_pressure;Samples;Min_cycle;Max_cycle;Signal;HPM_P1;HPM_P2
2021/08/16 00:01:12;;;;;;;7.10;5.67;;;19.40;1.00;;;;;;5034558;28;20485;-82
2021/08/16 00:16:20;;;;;;;7.97;5.47;;;19.30;1.00;;;;;;4908721;29;20460;-83
2021/08/16 00:25:58;;;;;;;8.60;5.60;;;19.40;1.00;;;;;;4995396;28;20465;-83
2021/08/16 00:46:50;;;;;;;6.43;5.27;;;19.30;1.00;;;;;;5020372;28;20449;-83
2021/08/16 00:58:00;;;;;;;6.87;4.97;;;19.20;1.00;;;;;;4953094;28;20465;-84
2021/08/16 01:04:52;;;;;;;7.20;5.10;;;19.10;1.00;;;;;;5028267;28;20525;-83
2021/08/16 01:08:06;;;;;;;9.00;5.20;;;19.10;1.00;;;;;;5062378;28;20390;-83
2021/08/16 01:11:44;;;;;;;5.97;4.63;;;19.10;1.00;;;;;;5057339;28;20444;-82
2021/08/16 04:28:17;;;;;;;6.23;5.63;;;18.40;1.00;;;;;;6115755;23;20634;-83
2021/08/16 04:30:48;;;;;;;5.50;4.90;;;18.60;1.00;;;;;;6169785;23;20394;-82
2021/08/16 04:33:17;;;;;;;8.17;5.97;;;18.70;1.00;;;;;;6207269;22;20460;-82
2021/08/16 04:35:45;;;;;;;8.03;6.33;;;18.80;1.00;;;;;;6279920;22;20388;-81
2021/08/16 04:38:19;;;;;;;7.60;5.80;;;18.80;1.00;;;;;;6252141;22;20507;-85
2021/08/16 04:40:50;;;;;;;6.17;5.57;;;18.80;1.00;;;;;;6252124;22;20407;-82
2021/08/16 04:43:26;;;;;;;6.20;5.53;;;18.80;1.00;;;;;;6249415;22;21415;-81
2021/08/16 04:46:00;;;;;;;8.70;6.23;;;18.80;1.00;;;;;;6249435;22;20523;-82
2021/08/16 04:48:50;;;;;;;7.83;5.90;;;18.80;1.00;;;;;;6277016;22;20388;-83
2021/08/16 04:51:26;;;;;;;9.80;5.93;;;18.90;1.00;;;;;;6251602;22;20383;-83
2021/08/16 04:54:02;;;;;;;8.60;6.13;;;19.10;1.00;;;;;;6250876;22;20395;-82
2021/08/16 04:56:32;;;;;;;6.70;5.17;;;19.20;1.00;;;;;;6277751;22;20392;-82
2021/08/16 04:59:23;;;;;;;6.50;5.30;;;19.30;1.00;;;;;;6243718;22;21245;-83
2021/08/16 05:01:51;;;;;;;9.00;6.23;;;19.40;1.00;;;;;;6250334;22;20433;-82
2021/08/16 05:04:22;;;;;;;7.00;5.93;;;19.60;1.00;;;;;;6227305;22;20571;-83
2021/08/16 05:06:58;;;;;;;9.10;5.00;;;19.50;1.00;;;;;;6226882;22;20413;-83
2021/08/16 05:09:25;;;;;;;6.20;4.97;;;19.50;1.00;;;;;;6225287;22;20386;-83
2021/08/16 05:11:55;;;;;;;6.40;5.37;;;19.50;1.00;;;;;;6248529;22;20405;-82
2021/08/16 05:14:31;;;;;;;6.90;4.60;;;19.50;1.00;;;;;;6220251;22;20479;-84
2021/08/16 05:17:15;;;;;;;7.33;5.00;;;19.50;1.00;;;;;;6250929;22;20641;-85
2021/08/16 05:19:43;;;;;;;8.60;6.53;;;19.60;1.00;;;;;;6226559;22;20424;-85
2021/08/16 05:22:18;;;;;;;7.93;6.20;;;19.60;1.00;;;;;;6241280;22;20436;-80
2021/08/16 05:24:54;;;;;;;6.03;4.20;;;19.60;1.00;;;;;;6260344;22;21115;-84
2021/08/16 05:27:59;;;;;;;6.77;6.10;;;19.60;1.00;;;;;;6225304;22;20830;-81
2021/08/16 05:34:06;;;;;;;7.03;4.63;;;19.80;1.00;;;;;;6221960;22;20519;-80
2021/08/16 05:36:42;;;;;;;7.40;5.20;;;19.80;1.00;;;;;;6248060;22;20454;-79
2021/08/16 05:39:26;;;;;;;7.80;5.10;;;19.90;1.00;;;;;;6221519;22;20448;-79
2021/08/16 05:42:14;;;;;;;5.20;4.70;;;19.90;1.00;;;;;;6246425;22;20418;-79
2021/08/16 05:45:04;;;;;;;5.47;4.97;;;20.00;1.00;;;;;;6250408;22;20404;-79
2021/08/16 05:47:38;;;;;;;5.97;5.27;;;20.10;1.00;;;;;;6221388;22;20455;-79
2021/08/16 05:50:27;;;;;;;6.40;5.43;;;20.20;1.00;;;;;;6222707;22;20412;-80
2021/08/16 05:53:00;;;;;;;5.53;4.70;;;20.30;1.00;;;;;;6242237;22;20460;-78
2021/08/16 05:55:48;;;;;;;8.60;5.43;;;20.40;1.00;;;;;;6242440;22;20415;-80
2021/08/16 05:58:46;;;;;;;7.20;5.80;;;20.60;1.00;;;;;;6226267;22;20410;-79
2021/08/16 06:01:26;;;;;;;7.73;6.13;;;20.70;1.00;;;;;;6246995;22;20433;-80
2021/08/16 06:06:46;;;;;;;8.50;6.00;;;21.10;1.00;;;;;;6249300;22;20372;-79
2021/08/16 06:09:19;;;;;;;8.80;5.50;;;21.20;1.00;;;;;;6249218;22;20818;-79
2021/08/16 06:12:01;;;;;;;7.20;4.90;;;21.30;1.00;;;;;;6245351;22;20403;-79
2021/08/16 06:14:48;;;;;;;6.33;4.90;;;21.40;1.00;;;;;;6221202;22;20433;-79
2021/08/16 06:17:30;;;;;;;8.90;4.70;;;21.50;1.00;;;;;;6216238;22;20449;-79
2021/08/16 06:20:34;;;;;;;7.03;5.00;;;21.50;1.00;;;;;;6245817;22;20385;-79
2021/08/16 06:23:25;;;;;;;8.07;5.30;;;21.40;1.00;;;;;;6242773;22;20398;-79
2021/08/16 06:25:58;;;;;;;7.00;5.57;;;21.50;1.00;;;;;;6251199;22;20434;-79
2021/08/16 06:28:43;;;;;;;4.77;4.27;;;21.70;1.00;;;;;;6245362;22;20484;-78
2021/08/16 06:31:27;;;;;;;5.90;3.63;;;21.90;1.00;;;;;;6217340;22;20419;-79
2021/08/16 06:34:00;;;;;;;6.60;4.30;;;22.00;1.00;;;;;;6242904;22;20395;-79
2021/08/16 06:36:30;;;;;;;6.30;4.37;;;22.00;1.00;;;;;;6243724;22;20565;-78
2021/08/16 06:38:57;;;;;;;7.27;4.53;;;21.90;1.00;;;;;;6242521;22;20421;-77
2021/08/16 06:41:28;;;;;;;7.83;4.40;;;21.90;1.00;;;;;;6251024;22;20522;-79
2021/08/16 06:44:14;;;;;;;7.00;4.00;;;21.90;1.00;;;;;;6251741;22;20383;-80
2021/08/16 06:47:01;;;;;;;5.70;4.37;;;21.90;1.00;;;;;;6247795;22;20474;-81
2021/08/16 06:49:37;;;;;;;7.53;4.50;;;21.90;1.00;;;;;;6245953;22;20466;-79
2021/08/16 06:55:04;;;;;;;5.90;4.20;;;22.00;1.00;;;;;;6236984;22;20971;-79
2021/08/16 06:57:46;;;;;;;8.40;4.10;;;22.00;1.00;;;;;;6243835;22;20522;-79
2021/08/16 07:52:14;;;;;;;4.70;3.70;;;22.70;1.00;;;;;;5970758;23;21241;-83
2021/08/16 07:54:51;;;;;;;7.17;4.47;;;23.00;1.00;;;;;;6100194;23;20424;-83
2021/08/16 08:00:49;;;;;;;7.60;4.87;;;22.90;1.00;;;;;;6253693;22;20432;-86
2021/08/16 08:10:46;;;;;;;5.37;4.30;;;22.70;1.00;;;;;;6252289;22;20539;-88
2021/08/16 08:13:30;;;;;;;7.10;4.87;;;22.60;1.00;;;;;;6254149;22;20360;-88
2021/08/16 08:16:13;;;;;;;7.23;5.07;;;22.70;1.00;;;;;;6204766;22;20419;-88
2021/08/16 08:18:57;;;;;;;6.97;5.53;;;22.90;1.00;;;;;;6230784;22;20820;-91
2021/08/16 08:28:28;;;;;;;6.77;5.17;;;23.20;1.00;;;;;;6254741;22;20453;-90
2021/08/16 08:31:04;;;;;;;6.40;5.80;;;23.20;1.00;;;;;;6228132;22;20435;-87
2021/08/16 08:33:38;;;;;;;6.90;6.07;;;23.20;1.00;;;;;;6200887;22;20396;-85
2021/08/16 08:36:07;;;;;;;8.63;6.17;;;23.30;1.00;;;;;;6222581;22;20911;-84
2021/08/16 08:38:47;;;;;;;6.33;5.77;;;23.30;1.00;;;;;;6224941;22;20390;-86
2021/08/16 08:41:17;;;;;;;6.43;5.83;;;23.30;1.00;;;;;;6249083;22;20427;-85
2021/08/16 08:43:47;;;;;;;7.23;6.23;;;23.20;1.00;;;;;;6221855;22;20526;-85
2021/08/16 08:46:19;;;;;;;6.47;5.80;;;23.20;1.00;;;;;;6251682;22;20416;-84
2021/08/16 08:48:47;;;;;;;6.47;5.87;;;23.20;1.00;;;;;;6225159;22;20401;-84
2021/08/16 08:51:21;;;;;;;6.80;6.03;;;23.30;1.00;;;;;;6223925;22;20942;-84
2021/08/16 08:53:48;;;;;;;6.50;5.17;;;23.40;1.00;;;;;;6250001;22;20389;-84
2021/08/16 08:56:33;;;;;;;5.70;5.17;;;23.50;1.00;;;;;;6260970;22;20543;-84
2021/08/16 08:59:29;;;;;;;7.17;5.50;;;23.70;1.00;;;;;;6239011;22;20446;-84
2021/08/16 09:02:03;;;;;;;7.30;6.00;;;23.70;1.00;;;;;;6236860;22;20963;-85
2021/08/16 09:04:59;;;;;;;5.87;5.20;;;23.70;1.00;;;;;;6268502;22;20366;-85
2021/08/16 09:07:39;;;;;;;5.93;5.27;;;23.80;1.00;;;;;;6272118;22;20443;-85
2021/08/16 09:10:13;;;;;;;6.87;5.93;;;24.20;1.00;;;;;;6247126;22;20390;-85
2021/08/16 09:12:48;;;;;;;6.70;5.30;;;24.70;1.00;;;;;;6247922;22;20465;-85
2021/08/16 09:15:20;;;;;;;5.13;4.63;;;25.10;1.00;;;;;;6274684;22;20385;-85
2021/08/16 09:18:06;;;;;;;5.80;4.63;;;25.10;1.00;;;;;;6274359;22;20367;-83
2021/08/16 09:20:35;;;;;;;6.13;4.70;;;24.90;1.00;;;;;;6270107;22;20336;-85
2021/08/16 09:23:17;;;;;;;5.63;4.70;;;24.60;1.00;;;;;;6264374;22;20424;-84
2021/08/16 09:25:53;;;;;;;6.60;5.50;;;24.30;1.00;;;;;;6232096;22;20370;-84
2021/08/16 09:28:39;;;;;;;6.70;5.60;;;24.30;1.00;;;;;;6236122;22;20442;-85
2021/08/16 09:31:15;;;;;;;5.13;4.03;;;24.20;1.00;;;;;;6272209;22;20409;-86
2021/08/16 09:34:15;;;;;;;5.37;4.33;;;24.40;1.00;;;;;;6216735;22;20415;-86
2021/08/16 09:36:56;;;;;;;6.83;5.23;;;24.70;1.00;;;;;;6262504;22;20408;-85
2021/08/16 09:39:36;;;;;;;7.97;5.53;;;25.20;1.00;;;;;;6229234;22;20454;-84
2021/08/16 09:42:09;;;;;;;5.67;4.20;;;26.10;1.00;;;;;;6227335;22;20377;-89
2021/08/16 09:44:49;;;;;;;4.40;4.00;;;27.50;1.00;;;;;;6226830;22;20422;-85
2021/08/16 09:47:21;;;;;;;4.93;4.43;;;28.60;1.00;;;;;;6248854;22;20436;-84
2021/08/16 09:49:57;;;;;;;6.20;4.30;;;28.40;1.00;;;;;;6222726;22;20402;-84
2021/08/16 09:52:30;;;;;;;5.30;3.83;;;27.80;1.00;;;;;;6252065;22;20400;-85
2021/08/16 09:54:59;;;;;;;5.00;4.23;;;27.50;1.00;;;;;;6249631;22;20394;-84
2021/08/16 09:57:27;;;;;;;5.27;4.23;;;28.20;1.00;;;;;;6252216;22;20382;-85
2021/08/16 09:59:56;;;;;;;5.30;4.57;;;27.90;1.00;;;;;;6250186;22;20466;-84
2021/08/16 10:02:28;;;;;;;4.90;4.40;;;27.10;1.00;;;;;;6250050;22;20375;-85
2021/08/16 10:05:03;;;;;;;5.20;4.03;;;26.30;1.00;;;;;;6251492;22;20403;-86
2021/08/16 10:07:36;;;;;;;8.60;4.33;;;27.40;1.00;;;;;;6255657;22;20388;-86
2021/08/16 10:10:10;;;;;;;6.20;5.37;;;29.30;1.00;;;;;;6255742;22;20390;-87
2021/08/16 10:12:58;;;;;;;6.30;4.13;;;30.60;1.00;;;;;;6256955;22;20407;-86
2021/08/16 10:15:36;;;;;;;3.87;3.50;;;31.40;1.00;;;;;;6233316;22;20439;-88
2021/08/16 10:18:38;;;;;;;6.00;4.37;;;32.90;1.00;;;;;;6230185;22;20415;-87
2021/08/16 10:22:19;;;;;;;4.00;3.57;;;32.70;1.00;;;;;;6259231;22;20400;-86
2021/08/16 10:24:48;;;;;;;7.00;3.77;;;31.40;1.00;;;;;;6117136;22;20421;-86
2021/08/16 10:27:30;;;;;;;7.00;3.57;;;30.70;1.00;;;;;;6275506;22;20363;-86
2021/08/16 10:30:07;;;;;;;3.70;3.30;;;30.40;1.00;;;;;;6268327;22;20388;-86
2021/08/16 10:32:37;;;;;;;4.70;3.17;;;30.10;1.00;;;;;;6248418;22;20371;-88
2021/08/16 10:35:14;;;;;;;4.87;3.57;;;31.30;1.00;;;;;;6277970;22;20352;-93
2021/08/16 10:37:43;;;;;;;4.37;3.23;;;32.70;1.00;;;;;;6276809;22;20427;-88
2021/08/16 10:40:21;;;;;;;5.23;3.47;;;33.10;1.00;;;;;;6250757;22;20360;-87
2021/08/16 10:42:55;;;;;;;4.77;3.27;;;33.70;1.00;;;;;;6274726;22;20365;-82
2021/08/16 10:45:31;;;;;;;4.00;3.60;;;33.90;1.00;;;;;;6244387;22;20410;-78
2021/08/16 10:48:25;;;;;;;4.47;3.87;;;33.90;1.00;;;;;;6270463;22;20383;-82
2021/08/16 10:51:11;;;;;;;5.33;3.13;;;32.30;1.00;;;;;;6266771;22;20394;-80
2021/08/16 10:53:57;;;;;;;5.40;3.70;;;30.60;1.00;;;;;;6259916;22;21072;-82
2021/08/16 10:56:30;;;;;;;4.20;3.80;;;29.60;1.00;;;;;;6226672;22;20436;-81
2021/08/16 10:59:04;;;;;;;4.40;4.00;;;29.00;1.00;;;;;;6248453;22;20463;-82
2021/08/16 11:01:38;;;;;;;5.10;3.80;;;28.80;1.00;;;;;;6247020;22;20412;-82
2021/08/16 11:04:15;;;;;;;5.70;3.30;;;30.30;1.00;;;;;;6219406;22;20423;-82
2021/08/16 11:06:55;;;;;;;10.50;3.87;;;31.80;1.00;;;;;;6222083;22;20511;-83
2021/08/16 11:09:26;;;;;;;6.17;3.47;;;32.80;1.00;;;;;;6222881;22;20408;-84
2021/08/16 11:12:02;;;;;;;4.53;3.40;;;33.60;1.00;;;;;;6251577;22;20400;-82
2021/08/16 11:14:31;;;;;;;3.03;2.73;;;34.30;1.00;;;;;;6225087;22;20403;-83
2021/08/16 11:17:00;;;;;;;3.43;2.70;;;34.30;1.00;;;;;;6224267;22;21339;-83
2021/08/16 11:19:44;;;;;;;4.33;3.77;;;34.70;1.00;;;;;;6226358;22;20380;-82
2021/08/16 11:22:22;;;;;;;5.23;2.80;;;34.80;1.00;;;;;;6224508;22;20408;-81
2021/08/16 11:24:55;;;;;;;6.07;3.40;;;34.80;1.00;;;;;;6250371;22;20376;-82
2021/08/16 11:27:27;;;;;;;4.10;3.10;;;34.80;1.00;;;;;;6227006;22;20448;-82
2021/08/16 11:30:03;;;;;;;6.27;3.70;;;34.80;1.00;;;;;;6226196;22;20408;-82
2021/08/16 11:32:36;;;;;;;3.73;2.60;;;33.80;1.00;;;;;;6222628;22;20483;-81
2021/08/16 11:35:09;;;;;;;4.07;3.00;;;32.80;1.00;;;;;;6255331;22;20376;-81
2021/08/16 11:37:43;;;;;;;4.60;2.97;;;32.30;1.00;;;;;;6230590;22;20372;-82
2021/08/16 11:40:11;;;;;;;6.00;3.73;;;33.40;1.00;;;;;;6267236;22;20501;-82
2021/08/16 11:42:47;;;;;;;4.30;3.17;;;34.90;1.00;;;;;;6235485;22;20384;-81
2021/08/16 11:45:17;;;;;;;5.27;2.73;;;35.90;1.00;;;;;;6229426;22;20395;-81
2021/08/16 11:47:50;;;;;;;4.20;2.90;;;36.10;1.00;;;;;;6227982;22;20741;-82
2021/08/16 11:50:19;;;;;;;3.40;3.10;;;36.10;1.00;;;;;;6226834;22;20456;-82
2021/08/16 11:52:51;;;;;;;3.90;3.07;;;36.10;1.00;;;;;;6231336;22;20391;-82
2021/08/16 11:55:26;;;;;;;5.40;2.70;;;35.80;1.00;;;;;;6237293;22;20426;-82
2021/08/16 11:58:00;;;;;;;4.17;3.07;;;34.30;1.00;;;;;;6223602;22;20408;-81
2021/08/16 12:00:32;;;;;;;4.47;3.20;;;33.60;1.00;;;;;;6225357;22;20452;-81
2021/08/16 12:03:09;;;;;;;5.93;3.77;;;33.10;1.00;;;;;;6224228;22;20407;-81
2021/08/16 12:05:45;;;;;;;4.10;3.10;;;32.20;1.00;;;;;;6228529;22;20383;-82
2021/08/16 12:08:14;;;;;;;6.20;3.23;;;31.00;1.00;;;;;;6254245;22;20412;-80
2021/08/16 12:10:46;;;;;;;3.83;3.40;;;29.60;1.00;;;;;;6252738;22;20875;-82
2021/08/16 12:13:14;;;;;;;3.90;2.70;;;29.10;1.00;;;;;;6227956;22;20478;-83
2021/08/16 12:15:44;;;;;;;5.57;4.50;;;29.40;1.00;;;;;;6258751;22;20411;-83
2021/08/16 12:18:11;;;;;;;2.77;2.50;;;29.70;1.00;;;;;;6253192;22;20478;-82
2021/08/16 12:20:40;;;;;;;5.73;3.30;;;29.40;1.00;;;;;;6249389;22;20418;-82
2021/08/16 12:23:08;;;;;;;4.77;3.70;;;29.80;1.00;;;;;;6248739;22;20414;-81
2021/08/16 12:25:46;;;;;;;5.07;3.10;;;30.80;1.00;;;;;;6251212;22;21288;-81
2021/08/16 12:28:17;;;;;;;4.83;2.83;;;32.10;1.00;;;;;;6249584;22;21298;-81
2021/08/16 12:30:44;;;;;;;3.57;3.27;;;31.60;1.00;;;;;;6251084;22;20433;-82
2021/08/16 12:33:15;;;;;;;3.87;3.00;;;31.00;1.00;;;;;;6251439;22;20429;-82
2021/08/16 12:35:54;;;;;;;6.53;3.47;;;31.10;1.00;;;;;;6220870;22;20452;-84
2021/08/16 12:38:26;;;;;;;9.93;7.97;;;31.20;1.00;;;;;;6224662;22;20375;-84
2021/08/16 12:41:02;;;;;;;5.80;2.70;;;32.30;1.00;;;;;;6253135;22;20387;-84
2021/08/16 12:43:40;;;;;;;5.07;2.70;;;33.80;1.00;;;;;;6226912;22;20439;-85
2021/08/16 12:46:08;;;;;;;7.20;4.53;;;34.60;1.00;;;;;;6269249;22;20364;-85
2021/08/16 12:48:39;;;;;;;5.50;2.93;;;35.30;1.00;;;;;;6264509;22;20538;-84
2021/08/16 12:51:06;;;;;;;3.47;3.03;;;34.70;1.00;;;;;;6257115;22;20368;-85
2021/08/16 12:53:33;;;;;;;4.63;2.77;;;33.40;1.00;;;;;;6225513;22;20395;-85
2021/08/16 12:56:02;;;;;;;4.93;2.80;;;31.60;1.00;;;;;;6227412;22;20425;-85
2021/08/16 12:58:31;;;;;;;3.83;3.00;;;30.50;1.00;;;;;;6226236;22;21583;-84
2021/08/16 13:01:04;;;;;;;4.63;2.77;;;30.50;1.00;;;;;;6249290;22;20425;-86
2021/08/16 13:03:35;;;;;;;7.07;3.50;;;30.40;1.00;;;;;;6225023;22;20491;-86
2021/08/16 13:06:03;;;;;;;3.50;2.50;;;30.80;1.00;;;;;;6228646;22;20405;-85
2021/08/16 13:08:30;;;;;;;6.10;2.47;;;31.00;1.00;;;;;;6224034;22;20930;-86
2021/08/16 13:10:58;;;;;;;4.53;2.97;;;30.30;1.00;;;;;;6249921;22;20527;-86
2021/08/16 13:13:33;;;;;;;3.80;3.10;;;31.10;1.00;;;;;;6250039;22;20375;-85
2021/08/16 13:16:07;;;;;;;5.10;3.27;;;32.60;1.00;;;;;;6227745;22;20418;-86
2021/08/16 13:18:34;;;;;;;6.03;3.40;;;32.80;1.00;;;;;;6230393;22;20450;-86
2021/08/16 13:21:03;;;;;;;5.43;3.13;;;31.90;1.00;;;;;;6256389;22;20380;-85
2021/08/16 13:23:33;;;;;;;6.47;2.90;;;32.40;1.00;;;;;;6238082;22;20368;-85
2021/08/16 13:26:00;;;;;;;5.93;2.70;;;33.40;1.00;;;;;;6230830;22;20972;-84
2021/08/16 13:28:30;;;;;;;6.57;2.70;;;34.30;1.00;;;;;;6225669;22;20412;-87
2021/08/16 13:31:02;;;;;;;4.83;2.97;;;34.40;1.00;;;;;;6253487;22;20360;-87
2021/08/16 13:33:32;;;;;;;5.80;3.63;;;32.90;1.00;;;;;;6226869;22;20380;-87
2021/08/16 13:36:00;;;;;;;4.03;3.27;;;31.60;1.00;;;;;;6252976;22;20409;-88
2021/08/16 13:38:27;;;;;;;4.20;3.00;;;31.10;1.00;;;;;;6255782;22;20521;-85
2021/08/16 13:41:01;;;;;;;4.50;2.90;;;30.70;1.00;;;;;;6260480;22;20414;-86
2021/08/16 13:43:41;;;;;;;6.00;3.40;;;30.00;1.00;;;;;;6266811;22;20455;-81
2021/08/16 13:46:12;;;;;;;8.63;3.87;;;29.60;1.00;;;;;;6231523;22;20407;-81
2021/08/16 13:48:46;;;;;;;4.00;3.20;;;29.50;1.00;;;;;;6249161;22;20399;-81
2021/08/16 13:51:19;;;;;;;15.40;4.63;;;28.70;1.00;;;;;;6248189;22;20426;-82
2021/08/16 13:53:53;;;;;;;5.57;3.60;;;28.30;1.00;;;;;;6222688;22;20444;-82
2021/08/16 13:56:44;;;;;;;10.67;3.73;;;28.00;1.00;;;;;;6222275;22;20464;-82
2021/08/16 13:59:25;;;;;;;5.63;2.73;;;27.50;1.00;;;;;;6231896;22;20455;-81
2021/08/16 14:02:01;;;;;;;4.37;3.30;;;27.10;1.00;;;;;;6264725;22;20397;-81
2021/08/16 14:04:37;;;;;;;5.83;3.60;;;27.00;1.00;;;;;;6235148;22;20447;-81
2021/08/16 14:07:12;;;;;;;4.43;3.93;;;27.20;1.00;;;;;;6226214;22;20466;-82
2021/08/16 14:09:50;;;;;;;7.00;3.37;;;27.80;1.00;;;;;;6247955;22;20422;-82
2021/08/16 14:12:38;;;;;;;6.83;3.53;;;28.20;1.00;;;;;;6217848;22;20421;-81
2021/08/16 14:15:16;;;;;;;4.60;3.70;;;27.80;1.00;;;;;;6250412;22;20381;-81
2021/08/16 14:17:46;;;;;;;5.63;3.60;;;27.70;1.00;;;;;;6217983;22;20436;-82
2021/08/16 14:20:34;;;;;;;7.00;3.10;;;27.50;1.00;;;;;;6219758;22;20415;-81
2021/08/16 14:23:10;;;;;;;4.43;3.30;;;27.40;1.00;;;;;;6246780;22;20547;-80
2021/08/16 14:26:01;;;;;;;3.60;3.30;;;27.20;1.00;;;;;;6242964;22;20923;-81
2021/08/16 14:28:51;;;;;;;5.33;3.90;;;26.90;1.00;;;;;;6243609;22;20403;-80
2021/08/16 14:31:36;;;;;;;4.73;3.90;;;26.50;1.00;;;;;;6245083;22;20413;-81
2021/08/16 14:34:26;;;;;;;9.10;4.27;;;26.30;1.00;;;;;;6217893;22;20425;-79
2021/08/16 14:37:15;;;;;;;5.67;3.97;;;26.10;1.00;;;;;;6245659;22;20769;-80
2021/08/16 14:43:14;;;;;;;9.27;4.70;;;26.10;1.00;;;;;;6236542;22;20523;-80
2021/08/16 14:46:16;;;;;;;5.37;4.00;;;26.00;1.00;;;;;;6251227;22;20380;-81
2021/08/16 14:49:16;;;;;;;7.20;5.00;;;25.50;1.00;;;;;;6249172;22;20370;-81
2021/08/16 14:52:22;;;;;;;;;;;;;;;;;;;;;
2021/08/16 14:55:23;;;;;;;5.10;4.23;;;25.00;1.00;;;;;;6227540;22;21147;-81
2021/08/16 14:58:17;;;;;;;7.40;4.20;;;24.90;1.00;;;;;;6230549;22;20441;-81
2021/08/16 15:01:02;;;;;;;8.30;4.50;;;25.00;1.00;;;;;;6252494;22;20407;-81
2021/08/16 15:03:49;;;;;;;6.80;5.17;;;24.80;1.00;;;;;;6230018;22;20403;-82
2021/08/16 15:07:09;;;;;;;8.53;4.50;;;24.50;1.00;;;;;;6254860;22;20419;-82
2021/08/16 15:09:50;;;;;;;6.90;5.30;;;24.30;1.00;;;;;;6227781;22;20430;-81
2021/08/16 15:12:34;;;;;;;5.80;4.47;;;24.20;1.00;;;;;;6282449;22;20879;-81
2021/08/16 15:19:14;;;;;;;9.37;4.73;;;23.80;1.00;;;;;;6312010;22;20425;-80
2021/08/16 15:22:09;;;;;;;8.37;4.40;;;23.50;1.00;;;;;;6334923;22;20490;-81
2021/08/16 15:24:49;;;;;;;7.73;5.13;;;23.50;1.00;;;;;;6347013;22;20383;-81
2021/08/16 15:31:18;;;;;;;4.83;3.67;;;23.30;1.00;;;;;;6322855;22;20387;-83
2021/08/16 15:34:03;;;;;;;5.30;3.83;;;23.20;1.00;;;;;;6361462;22;20382;-80
2021/08/16 15:36:50;;;;;;;5.73;4.13;;;23.10;1.00;;;;;;6368029;22;20381;-80
2021/08/16 15:39:34;;;;;;;6.20;4.03;;;23.10;1.00;;;;;;6370800;22;20356;-79
2021/08/16 15:42:29;;;;;;;6.03;4.03;;;23.10;1.00;;;;;;6369417;22;20371;-81
2021/08/16 15:45:30;;;;;;;;;;;;;;;;;;;;;
2021/08/16 15:48:35;;;;;;;4.30;3.87;;;22.40;1.00;;;;;;6366127;22;20412;-81
2021/08/16 15:51:25;;;;;;;5.03;4.53;;;22.10;1.00;;;;;;6362486;22;20382;-81
2021/08/16 15:54:13;;;;;;;5.60;4.37;;;21.80;1.00;;;;;;6370136;22;20503;-82
2021/08/16 15:57:04;;;;;;;7.80;5.40;;;21.50;1.00;;;;;;6370243;22;20404;-80
2021/08/16 16:00:00;;;;;;;7.70;4.27;;;21.40;1.00;;;;;;6369141;22;20443;-80
2021/08/16 16:02:52;;;;;;;7.10;4.20;;;21.30;1.00;;;;;;6368152;22;20754;-80
2021/08/16 16:05:55;;;;;;;5.50;4.30;;;21.20;1.00;;;;;;6369266;22;20402;-79
2021/08/16 16:08:45;;;;;;;5.43;3.80;;;21.10;1.00;;;;;;6368039;22;20396;-80
2021/08/16 16:11:29;;;;;;;3.30;2.70;;;21.00;1.00;;;;;;6366131;22;20397;-79
2021/08/16 16:14:04;;;;;;;6.70;3.00;;;20.90;1.00;;;;;;6370133;22;20393;-81
2021/08/16 16:16:49;;;;;;;4.50;2.20;;;20.80;1.00;;;;;;6380571;22;20392;-81
2021/08/16 16:22:57;;;;;;;2.17;1.60;;;20.40;1.00;;;;;;6378659;22;20443;-79
2021/08/16 16:25:34;;;;;;;4.97;1.73;;;20.20;1.00;;;;;;6375466;22;20401;-79
2021/08/16 16:28:47;;;;;;;2.20;1.50;;;20.10;1.00;;;;;;6370680;22;20452;-81
2021/08/16 16:32:06;;;;;;;2.70;1.60;;;20.00;1.00;;;;;;6341845;22;20477;-79
2021/08/16 16:37:40;;;;;;;2.43;1.73;;;19.80;1.00;;;;;;6355117;22;20393;-80
2021/08/16 16:40:15;;;;;;;2.20;1.63;;;19.70;1.00;;;;;;6354094;22;20401;-81
2021/08/16 16:45:43;;;;;;;3.80;1.97;;;19.40;1.00;;;;;;6371810;22;20373;-77
2021/08/16 16:48:28;;;;;;;3.10;2.17;;;19.30;1.00;;;;;;6379198;22;20403;-81
2021/08/16 16:51:37;;;;;;;;;;;;;;;;;;;;;
2021/08/16 16:54:42;;;;;;;3.10;1.77;;;19.30;1.00;;;;;;6328949;22;20509;-82
2021/08/16 17:00:28;;;;;;;2.70;2.00;;;19.10;1.00;;;;;;6341458;22;20468;-81
2021/08/16 17:03:02;;;;;;;5.70;3.20;;;19.10;1.00;;;;;;6341751;22;20470;-82
2021/08/16 17:12:49;;;;;;;2.93;2.00;;;19.10;1.00;;;;;;6313287;22;20896;-81
2021/08/16 17:15:27;;;;;;;3.80;3.40;;;19.00;1.00;;;;;;6341303;22;20440;-82
2021/08/16 17:18:11;;;;;;;2.97;1.97;;;19.00;1.00;;;;;;6341691;22;20505;-82
2021/08/16 17:21:12;;;;;;;2.80;2.40;;;19.00;1.00;;;;;;6341848;22;20400;-81
2021/08/16 17:27:25;;;;;;;5.17;4.67;;;18.80;1.00;;;;;;6340554;22;20504;-81
2021/08/16 17:30:13;;;;;;;2.40;1.90;;;18.70;1.00;;;;;;6335007;22;21187;-82
2021/08/16 17:32:52;;;;;;;4.13;2.10;;;18.50;1.00;;;;;;6346373;22;20407;-81
2021/08/16 17:38:44;;;;;;;2.77;2.30;;;18.30;1.00;;;;;;6369849;22;20435;-80
2021/08/16 17:41:27;;;;;;;3.27;2.17;;;18.00;1.00;;;;;;6343587;22;20423;-80
2021/08/16 17:44:22;;;;;;;3.47;2.43;;;17.80;1.00;;;;;;6351165;22;20372;-79
2021/08/16 17:47:05;;;;;;;4.93;3.13;;;17.40;1.00;;;;;;6358896;22;20392;-80
2021/08/16 17:49:39;;;;;;;3.90;3.00;;;17.30;1.00;;;;;;6378816;22;20959;-80
2021/08/16 17:52:27;;;;;;;3.47;2.43;;;17.10;1.00;;;;;;6381200;22;20455;-80
2021/08/16 17:55:13;;;;;;;3.50;2.77;;;16.90;1.00;;;;;;6343972;22;20503;-80
2021/08/16 17:57:49;;;;;;;3.30;3.00;;;16.60;1.00;;;;;;6371936;22;20871;-79
2021/08/16 18:01:05;;;;;;;;;;;;;;;;;;;;;
2021/08/16 18:03:53;;;;;;;3.67;3.10;;;16.40;1.00;;;;;;6340571;22;20509;-81
2021/08/16 18:06:30;;;;;;;5.17;3.80;;;16.30;1.00;;;;;;6370352;22;20404;-81
2021/08/16 18:09:08;;;;;;;6.20;3.90;;;16.30;1.00;;;;;;6341639;22;20486;-79
2021/08/16 18:11:38;;;;;;;4.63;3.70;;;16.30;1.00;;;;;;6368024;22;20447;-80
2021/08/16 18:14:06;;;;;;;4.53;3.53;;;16.20;1.00;;;;;;6340580;22;21421;-79
2021/08/16 18:16:36;;;;;;;5.37;4.37;;;16.10;1.00;;;;;;6340693;22;20929;-80
2021/08/16 18:19:33;;;;;;;6.60;4.50;;;16.00;1.00;;;;;;6340710;22;20424;-78
2021/08/16 18:22:16;;;;;;;4.40;3.60;;;16.00;1.00;;;;;;6370713;22;20415;-80
2021/08/16 18:24:54;;;;;;;6.03;4.63;;;16.00;1.00;;;;;;6342147;22;20423;-82
2021/08/16 18:27:44;;;;;;;4.20;3.63;;;16.00;1.00;;;;;;6349943;22;20393;-80
2021/08/16 18:30:25;;;;;;;4.80;4.30;;;15.80;1.00;;;;;;6336064;22;20461;-79
2021/08/16 18:33:29;;;;;;;4.67;2.63;;;15.80;1.00;;;;;;6364767;22;20389;-81
2021/08/16 18:36:21;;;;;;;4.83;3.73;;;15.60;1.00;;;;;;6390883;22;21095;-81
2021/08/16 18:38:56;;;;;;;3.70;3.00;;;15.30;1.00;;;;;;6360250;22;20506;-80
2021/08/16 18:41:38;;;;;;;3.50;2.50;;;15.10;1.00;;;;;;6358707;22;20389;-83
2021/08/16 18:44:48;;;;;;;3.57;2.40;;;15.00;1.00;;;;;;6357584;22;20401;-81
2021/08/16 18:47:21;;;;;;;3.03;2.10;;;14.80;1.00;;;;;;6324678;22;20377;-82
2021/08/16 18:50:03;;;;;;;3.87;2.70;;;14.70;1.00;;;;;;6382998;22;20405;-83
2021/08/16 18:52:38;;;;;;;3.03;2.60;;;14.70;1.00;;;;;;6350739;22;20460;-82
2021/08/16 18:55:38;;;;;;;5.20;2.70;;;14.70;1.00;;;;;;6356612;22;20368;-83
2021/08/16 18:58:24;;;;;;;4.00;2.67;;;14.70;1.00;;;;;;6347811;22;20433;-82
2021/08/16 19:01:37;;;;;;;3.70;2.37;;;14.70;1.00;;;;;;6372691;22;20372;-80
2021/08/16 19:04:32;;;;;;;3.80;2.50;;;14.60;1.00;;;;;;6310542;22;20402;-80
2021/08/16 19:07:09;;;;;;;3.63;2.70;;;14.70;1.00;;;;;;6373456;22;20402;-80
2021/08/16 19:09:47;;;;;;;4.10;3.23;;;14.60;1.00;;;;;;6371341;22;21187;-79
2021/08/16 19:12:29;;;;;;;4.93;3.83;;;14.70;1.00;;;;;;6371485;22;20446;-80
2021/08/16 19:15:18;;;;;;;5.43;3.67;;;14.70;1.00;;;;;;6341732;22;20396;-81
2021/08/16 19:18:16;;;;;;;5.37;3.17;;;14.60;1.00;;;;;;6343392;22;20417;-82
2021/08/16 19:21:00;;;;;;;4.97;2.90;;;14.50;1.00;;;;;;6376258;22;20409;-79
2021/08/16 19:24:13;;;;;;;;;;;;;;;;;;;;;
2021/08/16 19:27:38;;;;;;;4.77;3.50;;;14.50;1.00;;;;;;6365478;22;20429;-80
2021/08/16 19:30:13;;;;;;;5.27;3.13;;;14.50;1.00;;;;;;6297296;22;20415;-81
2021/08/16 19:33:18;;;;;;;5.60;4.63;;;14.60;1.00;;;;;;6344643;22;20427;-80
2021/08/16 19:36:07;;;;;;;5.17;3.80;;;14.70;1.00;;;;;;6359273;22;20406;-80
2021/08/16 19:38:48;;;;;;;12.67;10.20;;;14.70;1.00;;;;;;6354106;22;20430;-80
2021/08/16 19:41:32;;;;;;;5.03;3.40;;;14.70;1.00;;;;;;6387238;22;20358;-79
2021/08/16 19:44:17;;;;;;;5.10;3.67;;;14.80;1.00;;;;;;6356368;22;20403;-79
2021/08/16 19:50:02;;;;;;;5.17;3.57;;;14.80;1.00;;;;;;6376362;22;20425;-80
2021/08/16 19:52:32;;;;;;;5.50;3.90;;;14.70;1.00;;;;;;6356709;22;20381;-79
2021/08/16 19:55:10;;;;;;;5.90;3.57;;;14.70;1.00;;;;;;6364859;22;20379;-79
2021/08/16 19:57:42;;;;;;;5.83;3.00;;;14.60;1.00;;;;;;6351068;22;20415;-79
2021/08/16 20:00:40;;;;;;;5.40;3.20;;;14.50;1.00;;;;;;6370834;22;20467;-80
2021/08/16 20:03:11;;;;;;;4.80;3.57;;;14.40;1.00;;;;;;6344750;22;20448;-81
2021/08/16 20:05:54;;;;;;;5.30;3.57;;;14.30;1.00;;;;;;6340911;22;20493;-80
2021/08/16 20:08:21;;;;;;;7.07;4.60;;;14.20;1.00;;;;;;6371673;22;20374;-78
2021/08/16 20:11:07;;;;;;;49.57;43.13;;;14.20;1.00;;;;;;6347114;22;20751;-80
2021/08/16 20:13:43;;;;;;;4.20;3.33;;;14.30;1.00;;;;;;6340126;22;20391;-81
2021/08/16 20:16:10;;;;;;;6.53;4.30;;;14.30;1.00;;;;;;6345209;22;20418;-80